Time;durP1;ratioP1;P1;durP2;ratioP2;P2;SDS_P1;SDS_P2;PMS_P1;PMS_P2;Temp;Humidity;BMP_temperature;BMP_pressure;BME280_temperature;BME280_humidity;BME280_pressure;Samples;Min_cycle;Max_cycle;Signal;HPM_P1;HPM_P2
2022/06/04 00:00:43;;;;;;;4.00;2.97;;;;;;;16.78;63.27;98942.72;5007940;28;20057;-76
2022/06/04 00:03:09;;;;;;;3.58;3.28;;;;;;;16.69;63.57;98964.09;5007756;28;20064;-76
2022/06/04 00:05:41;;;;;;;4.05;3.65;;;;;;;16.48;63.90;98960.78;5001994;28;20066;-76
2022/06/04 00:08:08;;;;;;;4.40;3.80;;;;;;;16.33;64.32;98963.63;5003576;28;20040;-76
2022/06/04 00:16:11;;;;;;;3.15;2.95;;;;;;;16.62;63.89;98960.94;5001570;28;20037;-76
2022/06/04 00:18:39;;;;;;;4.28;3.47;;;;;;;16.31;64.25;98954.22;5005049;28;20045;-76
2022/06/04 00:21:04;;;;;;;5.43;4.40;;;;;;;16.19;64.63;98968.03;5004964;28;20112;-76
2022/06/04 00:23:30;;;;;;;4.05;3.40;;;;;;;16.46;64.07;98959.47;5005577;28;20121;-76
2022/06/04 00:25:57;;;;;;;4.18;3.88;;;;;;;16.33;63.98;98950.16;5020436;28;20057;-76
2022/06/04 00:28:25;;;;;;;5.22;4.30;;;;;;;16.10;64.61;98964.31;5002406;28;20034;-76
2022/06/04 00:30:51;;;;;;;4.38;3.83;;;;;;;16.14;64.80;98972.66;5004095;28;20030;-76
2022/06/04 00:33:17;;;;;;;3.50;3.20;;;;;;;16.32;63.87;98970.06;5004975;28;20109;-76
2022/06/04 00:35:45;;;;;;;5.70;4.13;;;;;;;16.13;64.65;98973.72;5009003;28;20143;-76
2022/06/04 00:38:12;;;;;;;6.03;4.25;;;;;;;15.82;65.59;98975.84;5008832;28;20088;-76
2022/06/04 00:41:06;;;;;;;3.85;3.55;;;;;;;16.05;65.60;98977.03;5012620;28;20029;-76
2022/06/04 00:43:49;;;;;;;4.70;4.20;;;;;;;16.03;64.99;98974.59;5006569;28;20034;-76
2022/06/04 00:46:39;;;;;;;6.95;4.35;;;;;;;16.13;64.42;98973.72;5005354;28;20034;-76
2022/06/04 00:49:08;;;;;;;6.88;4.53;;;;;;;16.12;64.92;98969.44;5003121;28;20548;-76
2022/06/04 00:51:34;;;;;;;3.72;3.42;;;;;;;16.23;64.20;98969.06;5000698;28;20056;-76
2022/06/04 00:54:00;;;;;;;4.43;4.13;;;;;;;16.05;64.92;98974.34;5005439;28;20092;-76
2022/06/04 00:57:06;;;;;;;5.93;4.63;;;;;;;15.99;65.37;98976.25;5001098;28;20488;-76
2022/06/04 00:59:57;;;;;;;5.30;4.80;;;;;;;15.77;65.90;98970.47;5005648;28;20041;-76
2022/06/04 01:02:36;;;;;;;5.05;4.55;;;;;;;15.68;66.10;98962.19;5003218;28;20096;-76
2022/06/04 01:05:08;;;;;;;5.90;4.40;;;;;;;15.61;65.94;98967.09;5005353;28;20474;-76
2022/06/04 01:07:47;;;;;;;5.00;4.60;;;;;;;15.49;66.44;98979.25;5008038;28;20080;-76
2022/06/04 01:10:15;;;;;;;4.53;4.13;;;;;;;15.87;65.64;98967.72;5006804;28;20030;-76
2022/06/04 01:12:54;;;;;;;5.32;4.18;;;;;;;15.83;64.96;98966.69;5026055;28;20367;-76
2022/06/04 01:15:32;;;;;;;3.70;3.40;;;;;;;15.91;65.22;98962.59;5005218;28;20068;-76
2022/06/04 01:18:52;;;;;;;6.15;5.07;;;;;;;15.56;65.96;98956.34;5009301;28;20033;-76
2022/06/04 01:21:29;;;;;;;4.60;4.18;;;;;;;15.75;65.55;98940.34;4992006;28;20080;-76
2022/06/04 01:23:55;;;;;;;4.13;3.60;;;;;;;16.14;64.43;98953.81;5004144;28;20588;-76
2022/06/04 01:26:32;;;;;;;3.58;3.28;;;;;;;16.18;63.82;98928.72;5007375;28;20038;-76
2022/06/04 01:29:05;;;;;;;3.72;3.42;;;;;;;16.59;62.91;98944.53;5006169;28;20025;-76
2022/06/04 01:31:37;;;;;;;4.25;3.95;;;;;;;16.81;61.89;98937.56;5009832;28;20022;-76
2022/06/04 01:34:08;;;;;;;3.75;3.45;;;;;;;16.68;62.30;98950.91;5004822;28;20081;-76
2022/06/04 01:36:47;;;;;;;4.32;3.40;;;;;;;16.29;63.43;98943.69;5002615;28;20193;-76
2022/06/04 01:39:22;;;;;;;4.15;3.78;;;;;;;16.39;62.84;98946.31;5005402;28;20038;-76
2022/06/04 01:41:52;;;;;;;5.15;3.53;;;;;;;16.27;63.79;98961.25;5007109;28;20383;-76
2022/06/04 01:44:22;;;;;;;3.92;3.63;;;;;;;16.41;62.65;98964.88;5020098;28;20044;-76
2022/06/04 01:46:51;;;;;;;5.18;4.22;;;;;;;16.34;63.05;98978.69;5005392;28;20057;-76
2022/06/04 01:49:28;;;;;;;4.72;3.67;;;;;;;16.69;62.10;98979.47;5006092;28;20026;-76
2022/06/04 01:51:58;;;;;;;3.88;3.58;;;;;;;16.69;62.40;98988.34;5007101;28;20041;-76
2022/06/04 01:54:29;;;;;;;3.80;3.45;;;;;;;16.59;62.49;98979.56;5006233;28;20044;-76
2022/06/04 01:57:01;;;;;;;4.45;4.10;;;;;;;16.39;62.80;98975.13;5003252;28;20074;-76
2022/06/04 01:59:36;;;;;;;4.63;4.22;;;;;;;16.28;62.91;98993.28;4987368;28;20053;-76
2022/06/04 02:02:09;;;;;;;5.55;5.05;;;;;;;15.91;64.16;98990.31;5004511;28;20137;-76
2022/06/04 02:04:44;;;;;;;4.78;4.28;;;;;;;15.87;64.41;98988.47;5004337;28;20518;-76
2022/06/04 02:07:32;;;;;;;4.70;4.30;;;;;;;15.77;63.97;98985.84;5005157;28;20064;-76
2022/06/04 02:10:33;;;;;;;3.95;3.65;;;;;;;16.07;63.41;98989.13;5023547;28;20763;-76
2022/06/04 02:13:03;;;;;;;4.00;3.65;;;;;;;15.93;63.94;98993.53;5003948;28;20021;-76
2022/06/04 02:15:56;;;;;;;6.35;4.50;;;;;;;15.64;64.69;98998.00;4981949;28;20042;-76
2022/06/04 02:18:23;;;;;;;4.65;4.25;;;;;;;15.56;64.62;98990.53;4998535;28;20053;-76
2022/06/04 02:20:48;;;;;;;6.10;4.38;;;;;;;15.65;64.52;98991.56;5001954;28;20033;-76
2022/06/04 02:23:14;;;;;;;5.40;4.90;;;;;;;15.46;65.24;98990.59;5005959;28;20088;-76
2022/06/04 02:25:40;;;;;;;8.10;5.78;;;;;;;15.09;65.86;98992.84;5006795;28;20058;-76
2022/06/04 02:28:06;;;;;;;5.00;4.60;;;;;;;14.84;66.95;98991.03;5003312;28;20116;-76
2022/06/04 02:30:50;;;;;;;5.68;5.18;;;;;;;14.91;66.48;98987.00;5005788;28;20084;-76
2022/06/04 02:33:26;;;;;;;4.85;4.45;;;;;;;14.68;67.04;98995.63;5005951;28;20057;-76
2022/06/04 02:35:56;;;;;;;8.20;5.22;;;;;;;14.50;68.10;98998.88;5006301;28;20049;-76
2022/06/04 02:38:31;;;;;;;6.53;5.93;;;;;;;13.85;69.70;98996.91;5003900;28;20033;-75
2022/06/04 02:41:05;;;;;;;6.57;5.97;;;;;;;14.39;68.33;99012.56;5006744;28;20030;-76
2022/06/04 02:43:36;;;;;;;7.40;6.03;;;;;;;14.36;68.23;99008.53;5005760;28;20033;-76
2022/06/04 02:46:21;;;;;;;5.60;4.47;;;;;;;14.53;67.86;99003.69;5003432;28;20075;-76
2022/06/04 02:49:01;;;;;;;6.30;5.43;;;;;;;14.61;67.73;99008.50;5007536;28;20060;-76
2022/06/04 02:51:35;;;;;;;6.32;5.82;;;;;;;14.39;68.33;99010.69;4998908;28;20026;-76
2022/06/04 02:54:06;;;;;;;6.95;6.35;;;;;;;14.49;68.17;99016.06;5002023;28;20434;-76
2022/06/04 02:56:33;;;;;;;6.30;5.55;;;;;;;14.62;67.50;99010.13;5004284;28;20029;-76
2022/06/04 02:59:03;;;;;;;7.45;6.75;;;;;;;14.01;69.13;99014.66;5005797;28;20385;-76
2022/06/04 03:01:30;;;;;;;6.28;5.68;;;;;;;14.07;69.42;99015.47;5006482;28;20025;-76
2022/06/04 03:03:57;;;;;;;7.50;6.38;;;;;;;13.59;71.34;99013.19;5006851;28;20040;-76
2022/06/04 03:06:26;;;;;;;6.10;5.03;;;;;;;13.98;70.00;99017.06;4987935;28;20476;-75
2022/06/04 03:08:53;;;;;;;6.30;4.97;;;;;;;13.92;69.76;99000.16;5020795;28;20037;-75
2022/06/04 03:11:20;;;;;;;6.32;5.72;;;;;;;13.75;70.80;99004.13;5005376;28;20129;-75
2022/06/04 03:13:45;;;;;;;6.25;5.13;;;;;;;14.17;69.85;99016.31;5008881;28;20036;-75
2022/06/04 03:16:12;;;;;;;7.22;6.50;;;;;;;13.18;73.34;98996.97;5004169;28;20030;-75
2022/06/04 03:18:37;;;;;;;10.98;7.22;;;;;;;12.99;74.17;98986.94;5006257;28;20417;-75
2022/06/04 03:21:04;;;;;;;6.18;5.57;;;;;;;13.74;71.46;99010.59;5004664;28;20048;-75
2022/06/04 03:23:29;;;;;;;6.70;6.15;;;;;;;13.64;71.50;99000.63;5006098;28;20096;-75
2022/06/04 03:25:55;;;;;;;6.32;5.53;;;;;;;13.72;71.38;99004.66;4989896;28;20034;-76
2022/06/04 03:28:20;;;;;;;9.13;5.65;;;;;;;13.89;70.68;99016.00;4990949;28;20034;-76
2022/06/04 03:30:45;;;;;;;7.82;6.30;;;;;;;13.79;71.46;99018.63;5002208;28;20092;-76
2022/06/04 03:33:11;;;;;;;9.13;6.43;;;;;;;13.47;72.45;99013.44;5005474;28;20024;-76
2022/06/04 03:35:36;;;;;;;12.85;6.63;;;;;;;13.22;73.64;99008.78;4988072;28;20133;-76
2022/06/04 03:38:02;;;;;;;7.18;6.43;;;;;;;13.58;71.95;99007.06;5004369;28;20125;-76
2022/06/04 03:40:27;;;;;;;7.57;6.65;;;;;;;12.85;75.19;99021.41;5001202;28;20029;-75
2022/06/04 03:42:53;;;;;;;8.73;6.72;;;;;;;12.82;75.00;99024.59;5002499;28;20025;-75
2022/06/04 03:45:18;;;;;;;7.55;6.82;;;;;;;13.30;73.25;99007.50;4999667;28;20371;-76
2022/06/04 03:47:43;;;;;;;6.85;6.00;;;;;;;12.80;75.75;99029.41;5002225;28;20037;-75
2022/06/04 03:50:13;;;;;;;9.93;6.68;;;;;;;12.88;74.76;99010.19;5003451;28;20046;-75
2022/06/04 03:52:39;;;;;;;7.47;6.75;;;;;;;12.67;75.94;99008.44;5007782;28;20392;-75
2022/06/04 03:55:05;;;;;;;9.68;8.18;;;;;;;13.05;74.96;99010.84;5004169;28;20547;-75
2022/06/04 03:57:45;;;;;;;10.25;6.40;;;;;;;13.10;74.40;99018.94;5003802;28;20056;-75
2022/06/04 04:00:13;;;;;;;12.18;6.55;;;;;;;12.88;75.45;99031.63;5003324;28;20099;-75
2022/06/04 04:02:41;;;;;;;7.25;6.53;;;;;;;12.73;75.66;99018.13;5005235;28;20208;-75
2022/06/04 04:05:08;;;;;;;9.32;6.88;;;;;;;13.01;75.78;99028.50;5003362;28;20026;-75
2022/06/04 04:07:33;;;;;;;9.65;6.65;;;;;;;13.17;74.62;99018.69;5001038;28;20040;-75
2022/06/04 04:09:59;;;;;;;8.35;7.15;;;;;;;13.06;75.66;99017.03;5004401;28;20029;-75
2022/06/04 04:12:25;;;;;;;13.43;6.95;;;;;;;13.36;74.50;99011.81;5005708;28;20543;-75
2022/06/04 04:14:50;;;;;;;7.18;6.47;;;;;;;13.09;75.02;99014.63;5004532;28;20036;-75
2022/06/04 04:17:15;;;;;;;10.90;6.93;;;;;;;13.41;74.20;99023.34;5002093;28;20119;-75
2022/06/04 04:19:41;;;;;;;8.98;6.47;;;;;;;13.71;72.67;99006.56;4987572;28;20065;-75
2022/06/04 04:22:06;;;;;;;7.32;6.63;;;;;;;13.64;73.58;99024.78;5005563;28;20386;-75
2022/06/04 04:24:31;;;;;;;10.75;6.25;;;;;;;13.82;73.26;99021.59;5005155;28;20025;-76
2022/06/04 04:26:57;;;;;;;6.82;6.15;;;;;;;13.51;73.78;99007.31;5003190;28;20581;-75
2022/06/04 04:29:22;;;;;;;12.55;6.28;;;;;;;13.29;74.35;99020.09;4987677;28;20129;-75
2022/06/04 04:31:48;;;;;;;5.75;5.25;;;;;;;13.21;75.17;99023.28;5005632;28;20344;-75
2022/06/04 04:34:13;;;;;;;6.82;6.13;;;;;;;13.21;75.27;99025.13;5001376;28;20041;-75
2022/06/04 04:36:38;;;;;;;14.80;7.13;;;;;;;13.02;75.76;99007.88;5003453;28;20042;-75
2022/06/04 04:39:04;;;;;;;8.77;6.07;;;;;;;13.56;73.91;99035.19;4986376;28;20037;-75
2022/06/04 04:41:29;;;;;;;14.32;7.10;;;;;;;13.32;74.31;99016.06;5021846;28;20030;-75
2022/06/04 04:43:54;;;;;;;7.78;6.45;;;;;;;13.13;74.56;99015.72;5006875;28;20133;-75
2022/06/04 04:46:20;;;;;;;7.03;5.20;;;;;;;13.92;72.78;99045.78;5004573;28;20037;-75
2022/06/04 04:48:47;;;;;;;7.65;5.50;;;;;;;13.73;72.56;99038.47;5000685;28;20066;-75
2022/06/04 04:51:17;;;;;;;6.38;5.28;;;;;;;14.03;72.26;99042.03;5004651;28;20480;-75
2022/06/04 04:53:43;;;;;;;10.43;5.53;;;;;;;13.97;72.14;99050.34;5001476;28;20413;-76
2022/06/04 04:56:09;;;;;;;8.48;6.10;;;;;;;13.89;72.62;99045.50;5005477;28;20213;-75
2022/06/04 04:58:36;;;;;;;6.28;5.68;;;;;;;13.62;72.74;99028.78;5001183;28;20117;-76
2022/06/04 05:01:01;;;;;;;6.43;5.40;;;;;;;13.91;72.23;99044.16;4994174;28;20564;-75
2022/06/04 05:03:26;;;;;;;5.90;5.10;;;;;;;13.96;72.18;99046.03;4999215;28;20030;-75
2022/06/04 05:06:03;;;;;;;14.25;6.07;;;;;;;13.89;72.15;99040.13;4997872;28;20502;-75
2022/06/04 05:08:30;;;;;;;6.20;5.57;;;;;;;13.88;71.96;99049.25;4998794;28;20366;-75
2022/06/04 05:10:55;;;;;;;10.65;5.75;;;;;;;13.20;74.43;99047.63;4998179;28;20061;-75
2022/06/04 05:13:21;;;;;;;6.28;5.55;;;;;;;13.91;72.93;99054.09;5002384;28;20496;-75
2022/06/04 05:15:47;;;;;;;7.35;6.20;;;;;;;13.92;72.36;99064.56;5007317;28;20040;-75
2022/06/04 05:18:12;;;;;;;7.35;6.20;;;;;;;13.41;74.43;99063.56;5002274;28;20034;-75
2022/06/04 05:20:41;;;;;;;8.18;5.15;;;;;;;14.45;71.46;99073.25;5004520;28;20065;-76
2022/06/04 05:23:06;;;;;;;11.43;6.50;;;;;;;13.57;73.71;99079.72;5002870;28;20172;-76
2022/06/04 05:25:31;;;;;;;5.75;5.18;;;;;;;13.25;74.40;99066.44;5005705;28;20048;-75
2022/06/04 05:27:57;;;;;;;8.65;5.68;;;;;;;13.70;73.13;99073.88;5002298;28;20103;-75
2022/06/04 05:30:24;;;;;;;8.60;6.15;;;;;;;13.48;73.03;99023.91;5006567;28;20035;-75
2022/06/04 05:32:49;;;;;;;8.77;5.07;;;;;;;14.17;72.59;99082.59;5005946;28;20433;-75
2022/06/04 05:35:14;;;;;;;7.85;6.00;;;;;;;14.13;72.87;99095.72;5007082;28;20092;-75
2022/06/04 05:37:40;;;;;;;6.97;5.93;;;;;;;13.97;71.73;99106.69;5010418;28;20494;-75
2022/06/04 05:40:06;;;;;;;8.05;5.28;;;;;;;14.17;72.33;99104.91;5000370;28;20038;-75
2022/06/04 05:42:32;;;;;;;7.47;5.07;;;;;;;14.31;71.92;99091.78;5003195;28;20042;-75
2022/06/04 05:44:58;;;;;;;15.43;6.07;;;;;;;14.20;71.87;99095.47;5007537;28;20116;-75
2022/06/04 05:47:23;;;;;;;7.90;4.95;;;;;;;14.38;71.84;99088.81;5003238;28;20329;-75
2022/06/04 05:49:49;;;;;;;9.52;6.38;;;;;;;13.89;72.59;99104.53;4972770;28;20112;-75
2022/06/04 05:52:14;;;;;;;6.10;5.50;;;;;;;13.83;72.43;99106.38;5006472;28;20030;-75
2022/06/04 05:54:39;;;;;;;10.95;7.00;;;;;;;13.83;72.16;99094.84;5007452;28;20030;-75
2022/06/04 05:57:05;;;;;;;9.02;6.32;;;;;;;14.01;72.06;99084.44;5006922;28;20591;-75
2022/06/04 05:59:30;;;;;;;11.05;5.22;;;;;;;14.24;71.79;99077.78;5006293;28;20061;-76
2022/06/04 06:01:56;;;;;;;6.60;5.95;;;;;;;14.45;70.54;99087.50;4985990;28;20038;-76
2022/06/04 06:04:21;;;;;;;6.50;5.15;;;;;;;14.98;70.05;99105.75;5008929;28;20030;-76
2022/06/04 06:06:50;;;;;;;8.05;5.90;;;;;;;14.72;69.65;99114.13;5005154;28;20034;-76
2022/06/04 06:09:18;;;;;;;10.90;7.47;;;;;;;14.13;71.90;99111.06;5005482;28;20029;-76
2022/06/04 06:11:44;;;;;;;8.80;6.13;;;;;;;14.31;71.46;99121.31;4988675;28;20453;-76
2022/06/04 06:14:10;;;;;;;6.75;5.90;;;;;;;14.69;70.71;99117.34;5006429;28;20022;-76
2022/06/04 06:16:40;;;;;;;6.90;6.13;;;;;;;14.28;70.91;99087.69;5002418;28;20041;-76
2022/06/04 06:19:07;;;;;;;11.13;5.88;;;;;;;14.75;70.58;99102.81;5004186;28;20410;-76
2022/06/04 06:21:34;;;;;;;10.52;5.47;;;;;;;15.09;69.54;99100.38;5007884;28;20057;-76
2022/06/04 06:24:00;;;;;;;7.38;5.38;;;;;;;15.09;69.88;99105.75;5004706;28;20584;-76
2022/06/04 06:26:31;;;;;;;6.72;5.93;;;;;;;15.35;69.15;99115.41;5004297;28;20112;-76
2022/06/04 06:29:00;;;;;;;8.38;6.57;;;;;;;14.84;70.97;99128.09;5006086;28;20087;-76
2022/06/04 06:31:27;;;;;;;8.10;6.05;;;;;;;14.77;70.36;99125.66;5003367;28;20057;-76
2022/06/04 06:33:53;;;;;;;7.88;6.20;;;;;;;14.86;70.99;99137.50;5001853;28;20034;-76
2022/06/04 06:36:20;;;;;;;10.50;5.97;;;;;;;14.68;71.29;99135.31;4993298;28;20038;-76
2022/06/04 06:38:46;;;;;;;9.48;6.22;;;;;;;14.62;71.44;99120.28;5015313;28;20041;-76
2022/06/04 06:41:14;;;;;;;7.65;5.30;;;;;;;14.93;70.97;99131.84;5003189;28;20516;-76
2022/06/04 06:43:46;;;;;;;6.15;5.43;;;;;;;15.12;70.15;99122.16;5005852;28;20132;-76
2022/06/04 06:46:15;;;;;;;6.93;5.93;;;;;;;15.58;69.00;99147.09;4999408;28;20064;-76
2022/06/04 06:48:42;;;;;;;9.52;6.93;;;;;;;15.38;71.20;99149.78;4997392;28;20597;-76
2022/06/04 06:51:11;;;;;;;9.63;5.20;;;;;;;15.51;69.04;99151.97;5001681;28;20473;-76
2022/06/04 06:53:37;;;;;;;6.97;6.30;;;;;;;15.25;70.32;99144.97;4999800;28;20040;-76
2022/06/04 06:56:24;;;;;;;7.45;5.68;;;;;;;15.95;67.93;99141.31;5003246;28;20418;-76
2022/06/04 06:58:50;;;;;;;12.05;6.68;;;;;;;15.54;69.31;99140.66;5004294;28;20030;-75
2022/06/04 07:01:15;;;;;;;6.82;5.45;;;;;;;15.99;68.17;99135.09;5002721;28;20580;-76
2022/06/04 07:03:42;;;;;;;9.35;6.05;;;;;;;15.32;68.99;99158.97;5005154;28;20040;-76
2022/06/04 07:06:09;;;;;;;9.18;5.40;;;;;;;15.79;68.79;99156.75;5006233;28;20036;-76
2022/06/04 07:08:37;;;;;;;8.18;5.30;;;;;;;16.36;67.00;99157.00;5006151;28;20437;-76
2022/06/04 07:11:02;;;;;;;9.00;6.03;;;;;;;16.40;66.44;99165.34;5004998;28;20029;-76
2022/06/04 07:13:27;;;;;;;10.07;5.07;;;;;;;16.39;66.57;99161.03;5001647;28;20033;-76
2022/06/04 07:15:53;;;;;;;6.03;5.00;;;;;;;16.62;66.40;99164.97;4988842;28;20056;-76
2022/06/04 07:18:19;;;;;;;9.32;5.63;;;;;;;15.80;68.21;99154.84;4988304;28;20153;-76
2022/06/04 07:20:45;;;;;;;9.20;6.20;;;;;;;15.75;68.58;99151.09;5000878;28;20069;-76
2022/06/04 07:23:10;;;;;;;11.50;7.47;;;;;;;15.42;69.10;99156.28;5004813;28;20026;-76
2022/06/04 07:25:37;;;;;;;13.15;6.68;;;;;;;15.83;69.50;99148.91;5005961;28;20133;-76
2022/06/04 07:28:04;;;;;;;12.25;6.60;;;;;;;16.06;69.01;99154.47;5010872;28;20069;-76
2022/06/04 07:30:29;;;;;;;7.60;5.38;;;;;;;16.77;66.48;99140.59;5000281;28;20494;-76
2022/06/04 07:32:54;;;;;;;9.10;5.63;;;;;;;15.79;68.78;99139.78;4986267;28;20113;-76
2022/06/04 07:35:20;;;;;;;8.75;6.40;;;;;;;16.13;68.83;99138.81;5006187;28;20482;-76
2022/06/04 07:37:46;;;;;;;9.68;6.55;;;;;;;15.95;70.37;99141.31;5001064;28;20041;-76
2022/06/04 07:40:11;;;;;;;8.23;5.63;;;;;;;16.71;67.46;99128.25;5004012;28;20287;-76
2022/06/04 07:42:37;;;;;;;9.68;5.85;;;;;;;16.52;68.27;99132.69;5001046;28;20116;-76
2022/06/04 07:45:03;;;;;;;10.68;7.05;;;;;;;16.26;68.30;99138.22;5004229;28;20088;-76
2022/06/04 07:47:28;;;;;;;6.72;6.00;;;;;;;16.20;68.81;99127.75;5001288;28;20029;-76
2022/06/04 07:49:57;;;;;;;9.45;6.78;;;;;;;16.51;68.84;99126.50;5004160;28;20045;-76
2022/06/04 07:52:23;;;;;;;5.50;4.93;;;;;;;17.45;65.97;99125.16;5002358;28;20037;-76
2022/06/04 07:54:48;;;;;;;5.63;4.82;;;;;;;17.70;64.84;99125.69;4999663;28;20405;-76
2022/06/04 07:57:14;;;;;;;11.18;6.13;;;;;;;17.60;65.02;99133.13;4984672;28;20037;-76
2022/06/04 07:59:39;;;;;;;6.88;6.13;;;;;;;17.27;66.49;99144.75;5002037;28;20034;-76
2022/06/04 08:02:05;;;;;;;5.38;4.40;;;;;;;17.95;64.49;99121.91;5001593;28;20490;-76
2022/06/04 08:04:30;;;;;;;11.70;5.50;;;;;;;18.04;63.95;99127.47;4999294;28;20058;-76
2022/06/04 08:06:57;;;;;;;8.20;5.32;;;;;;;18.02;64.31;99130.44;5000874;28;20549;-76
2022/06/04 08:09:22;;;;;;;6.28;4.63;;;;;;;17.97;64.71;99144.81;5002335;28;20374;-76
2022/06/04 08:11:47;;;;;;;8.40;6.40;;;;;;;17.91;65.36;99134.34;5001629;28;20042;-76
2022/06/04 08:14:13;;;;;;;9.65;4.75;;;;;;;18.32;63.55;99140.03;5002602;28;20750;-76
2022/06/04 08:16:41;;;;;;;8.85;6.60;;;;;;;17.60;65.95;99144.72;5001016;28;20030;-76
2022/06/04 08:19:07;;;;;;;11.18;6.43;;;;;;;17.38;67.18;99135.47;5016198;28;20042;-76
2022/06/04 08:21:35;;;;;;;7.00;5.90;;;;;;;17.95;65.10;99141.59;5006788;28;20033;-76
2022/06/04 08:24:01;;;;;;;7.22;5.60;;;;;;;18.53;64.33;99127.88;4986523;28;20113;-76
2022/06/04 08:26:27;;;;;;;6.97;6.07;;;;;;;18.00;64.67;99140.72;4995980;28;20132;-76
2022/06/04 08:28:52;;;;;;;9.43;7.25;;;;;;;17.48;65.62;99136.16;5003691;28;20045;-76
2022/06/04 08:31:18;;;;;;;14.55;5.85;;;;;;;18.35;64.83;99152.97;5001145;28;20034;-76
2022/06/04 08:33:44;;;;;;;9.05;5.65;;;;;;;18.17;64.52;99153.75;4997666;28;20048;-76
2022/06/04 08:36:11;;;;;;;7.38;5.22;;;;;;;18.66;63.15;99148.75;4996103;28;20042;-77
2022/06/04 08:38:37;;;;;;;9.55;6.20;;;;;;;18.70;63.07;99157.88;5000925;28;20382;-76
2022/06/04 08:41:06;;;;;;;14.70;6.40;;;;;;;18.52;63.71;99162.19;5001578;28;20037;-76
2022/06/04 08:43:37;;;;;;;7.72;5.50;;;;;;;18.66;63.61;99141.47;5003558;28;20128;-76
2022/06/04 08:46:11;;;;;;;6.38;5.68;;;;;;;18.82;63.58;99144.75;5000635;28;20076;-76
2022/06/04 08:48:40;;;;;;;7.43;5.65;;;;;;;18.71;63.55;99148.69;5003987;28;20125;-76
2022/06/04 08:51:18;;;;;;;7.53;5.53;;;;;;;18.86;63.32;99155.75;4986156;28;20259;-76
2022/06/04 08:53:51;;;;;;;6.95;6.35;;;;;;;18.29;63.40;99160.34;5003741;28;20359;-75
2022/06/04 08:59:35;;;;;;;8.45;6.22;;;;;;;18.91;64.00;99159.19;5010528;28;20129;-76
2022/06/04 09:02:04;;;;;;;7.63;5.68;;;;;;;18.40;64.04;99156.41;5009493;28;20036;-76
2022/06/04 09:04:54;;;;;;;6.55;5.85;;;;;;;18.61;65.75;99157.75;5005262;28;20022;-76
2022/06/04 09:07:25;;;;;;;9.98;6.07;;;;;;;18.97;64.12;99163.44;5004305;28;20069;-76
2022/06/04 09:10:11;;;;;;;13.20;5.53;;;;;;;18.99;63.72;99166.63;5004856;28;20564;-76
2022/06/04 09:12:45;;;;;;;6.45;5.80;;;;;;;19.70;62.16;99171.63;5006332;28;20037;-76
2022/06/04 09:15:39;;;;;;;9.18;6.38;;;;;;;19.43;62.42;99167.00;5002267;28;20064;-76
2022/06/04 09:18:13;;;;;;;11.57;5.97;;;;;;;19.69;61.73;99153.78;5003100;28;20042;-76
2022/06/04 09:20:49;;;;;;;13.05;6.30;;;;;;;19.63;61.79;99176.66;5019903;28;20041;-76
2022/06/04 09:23:27;;;;;;;6.78;4.43;;;;;;;20.25;60.09;99183.28;5022161;28;20064;-76
2022/06/04 09:25:58;;;;;;;7.25;5.50;;;;;;;19.58;61.16;99170.50;5007625;28;20112;-76
2022/06/04 09:28:51;;;;;;;6.00;4.00;;;;;;;20.16;60.32;99188.59;5015387;28;20025;-76
2022/06/04 09:31:40;;;;;;;6.20;4.78;;;;;;;20.03;59.53;99194.00;5004273;28;20037;-76
2022/06/04 09:34:20;;;;;;;4.97;4.45;;;;;;;20.29;59.33;99194.34;4997338;28;20398;-76
2022/06/04 09:36:46;;;;;;;7.57;6.70;;;;;;;19.71;60.20;99183.28;4996038;28;20499;-76
2022/06/04 09:39:22;;;;;;;6.57;4.80;;;;;;;19.67;59.29;99183.06;4990669;28;21694;-76
2022/06/04 09:42:00;;;;;;;7.82;5.65;;;;;;;19.46;61.19;99192.69;4987509;28;20041;-76
2022/06/04 09:44:28;;;;;;;8.82;6.47;;;;;;;19.11;61.49;99185.91;5008627;28;20040;-76
2022/06/04 09:47:07;;;;;;;10.38;5.93;;;;;;;19.63;61.05;99192.91;4995791;28;20080;-76
2022/06/04 09:49:40;;;;;;;5.95;5.15;;;;;;;19.28;60.82;99197.00;5005766;28;20041;-76
2022/06/04 09:52:35;;;;;;;6.00;5.25;;;;;;;19.58;61.19;99194.88;5005997;28;20203;-76
2022/06/04 09:55:27;;;;;;;9.90;5.72;;;;;;;19.47;61.01;99196.97;5008680;28;20083;-76
2022/06/04 09:58:16;;;;;;;7.07;5.28;;;;;;;19.86;59.62;99194.63;5003150;28;20053;-76
2022/06/04 10:00:55;;;;;;;8.20;5.20;;;;;;;20.13;59.71;99196.53;5005524;28;20084;-76
2022/06/04 10:03:21;;;;;;;7.50;4.57;;;;;;;20.19;60.05;99203.44;5006438;28;20030;-76
2022/06/04 10:05:57;;;;;;;6.68;4.78;;;;;;;20.26;59.37;99201.19;5010423;28;20092;-76
2022/06/04 10:08:26;;;;;;;6.07;4.90;;;;;;;19.87;58.46;99201.66;5002664;28;20037;-76
2022/06/04 10:11:03;;;;;;;4.85;4.32;;;;;;;20.10;58.88;99192.53;5007065;28;20939;-76
2022/06/04 10:13:45;;;;;;;8.02;5.20;;;;;;;19.93;58.88;99194.22;5008425;28;20017;-76
2022/06/04 10:16:42;;;;;;;6.68;4.50;;;;;;;19.85;58.38;99205.78;5007475;28;20950;-76
2022/06/04 10:19:20;;;;;;;6.07;4.43;;;;;;;20.06;58.99;99206.97;5013827;28;20383;-76
2022/06/04 10:21:48;;;;;;;11.65;5.07;;;;;;;20.36;59.48;99192.00;5004680;28;20121;-76
2022/06/04 10:24:27;;;;;;;4.38;3.95;;;;;;;20.14;58.81;99198.13;5005531;28;20088;-76
2022/06/04 10:27:34;;;;;;;7.78;4.47;;;;;;;20.04;59.81;99206.47;4996447;28;20728;-76
2022/06/04 10:30:17;;;;;;;4.35;3.95;;;;;;;20.29;59.49;99199.78;5000485;28;20029;-76
2022/06/04 10:33:12;;;;;;;4.25;3.83;;;;;;;20.25;58.76;99194.13;4997271;28;20081;-77
2022/06/04 10:35:54;;;;;;;5.28;4.32;;;;;;;20.38;58.65;99198.75;5002213;28;20057;-76
2022/06/04 10:38:44;;;;;;;4.30;3.90;;;;;;;20.28;58.40;99206.28;5014240;28;20026;-76
2022/06/04 10:41:15;;;;;;;5.13;3.80;;;;;;;20.08;59.62;99208.28;4993502;28;20030;-76
2022/06/04 10:44:17;;;;;;;5.38;3.95;;;;;;;20.10;58.58;99208.78;4996799;28;20057;-76
2022/06/04 10:47:03;;;;;;;7.00;4.45;;;;;;;20.40;57.90;99204.66;5008638;28;20084;-76
2022/06/04 10:49:58;;;;;;;5.13;4.27;;;;;;;20.16;57.65;99206.75;4991605;28;20031;-76
2022/06/04 10:52:40;;;;;;;7.72;3.53;;;;;;;20.85;56.39;99209.09;4964068;28;20369;-76
2022/06/04 10:55:31;;;;;;;5.53;3.60;;;;;;;20.64;57.42;99193.59;4982144;28;20103;-76
2022/06/04 10:58:11;;;;;;;4.40;3.78;;;;;;;20.53;56.84;99211.19;5000392;28;20022;-76
2022/06/04 11:01:25;;;;;;;6.68;3.50;;;;;;;20.72;56.78;99201.00;5005955;28;20038;-76
2022/06/04 11:04:07;;;;;;;4.47;3.67;;;;;;;21.02;56.64;99189.41;4946163;28;20129;-76
2022/06/04 11:06:38;;;;;;;4.88;3.42;;;;;;;21.54;55.42;99204.16;5005626;28;20037;-76
2022/06/04 11:09:10;;;;;;;5.47;3.90;;;;;;;21.29;54.79;99204.81;5008325;28;20111;-76
2022/06/04 11:11:56;;;;;;;3.70;3.40;;;;;;;21.53;54.86;99208.00;5006115;28;20379;-76
2022/06/04 11:14:37;;;;;;;4.10;3.35;;;;;;;21.71;53.90;99204.25;5001469;28;20484;-76
2022/06/04 11:17:18;;;;;;;7.53;3.55;;;;;;;21.42;54.56;99210.19;5003685;28;20112;-76
2022/06/04 11:19:59;;;;;;;8.73;3.47;;;;;;;21.70;55.56;99212.72;5001795;28;20113;-76
2022/06/04 11:22:35;;;;;;;4.95;3.55;;;;;;;22.02;54.83;99204.25;5004559;28;20037;-76
2022/06/04 11:25:32;;;;;;;8.57;3.50;;;;;;;21.49;54.92;99213.25;5012512;28;20013;-76
2022/06/04 11:28:03;;;;;;;9.77;3.67;;;;;;;21.70;55.26;99212.72;5004826;28;20032;-76
2022/06/04 11:30:41;;;;;;;6.25;3.97;;;;;;;22.26;54.38;99199.22;5006640;28;20490;-76
2022/06/04 11:33:25;;;;;;;3.95;3.55;;;;;;;21.44;54.31;99207.97;5007734;28;20033;-76
2022/06/04 11:36:09;;;;;;;3.90;3.55;;;;;;;21.21;54.60;99200.16;5008112;28;20034;-76
2022/06/04 11:39:09;;;;;;;3.90;3.50;;;;;;;22.27;53.11;99212.53;5003360;28;20416;-76
2022/06/04 11:41:50;;;;;;;3.67;3.38;;;;;;;21.39;55.19;99213.50;5012967;28;20039;-76
2022/06/04 11:44:47;;;;;;;6.90;3.30;;;;;;;21.67;53.51;99222.28;5006533;28;20038;-76
2022/06/04 11:47:29;;;;;;;5.68;3.97;;;;;;;21.76;54.35;99212.28;5005587;28;20037;-76
2022/06/04 11:50:13;;;;;;;5.53;3.17;;;;;;;22.23;53.77;99214.28;5007909;28;20480;-76
2022/06/04 11:53:07;;;;;;;5.30;3.13;;;;;;;22.16;53.19;99213.91;5000794;28;20041;-76
2022/06/04 11:55:48;;;;;;;4.97;3.72;;;;;;;22.05;53.20;99209.88;5007391;28;20049;-76
2022/06/04 11:58:30;;;;;;;6.88;3.53;;;;;;;22.38;53.49;99202.94;5004179;28;20026;-76
2022/06/04 12:01:00;;;;;;;4.85;3.00;;;;;;;22.54;53.81;99216.88;5006155;28;20038;-76
2022/06/04 12:03:43;;;;;;;3.63;3.08;;;;;;;22.57;53.12;99216.25;5004677;28;20411;-76